Time;durP1;ratioP1;P1;durP2;ratioP2;P2;SDS_P1;SDS_P2;PMS_P1;PMS_P2;Temp;Humidity;BMP_temperature;BMP_pressure;BME280_temperature;BME280_humidity;BME280_pressure;Samples;Min_cycle;Max_cycle;Signal;HPM_P1;HPM_P2
2023/12/15 00:02:05;;;;;;;2.50;1.58;;;7.60;99.90;;;;;;5004188;28;20132;-75
2023/12/15 00:04:32;;;;;;;3.20;1.67;;;7.60;1.00;;;;;;5006082;28;20049;-75
2023/12/15 00:06:59;;;;;;;1.77;1.23;;;7.60;99.90;;;;;;5002376;28;20058;-75
2023/12/15 00:09:26;;;;;;;1.30;1.00;;;7.60;99.90;;;;;;4998635;28;20046;-76
2023/12/15 00:11:53;;;;;;;1.83;1.15;;;7.60;99.90;;;;;;5005317;28;20111;-75
2023/12/15 00:14:20;;;;;;;1.52;1.13;;;7.50;1.00;;;;;;5003113;28;20104;-75
2023/12/15 00:16:46;;;;;;;1.77;1.23;;;7.50;28.70;;;;;;4985059;28;20053;-75
2023/12/15 00:19:13;;;;;;;1.65;1.17;;;7.50;1.00;;;;;;5004279;28;20400;-75
2023/12/15 00:21:40;;;;;;;1.30;1.10;;;7.50;1.00;;;;;;5006860;28;20567;-75
2023/12/15 00:24:08;;;;;;;2.45;1.65;;;7.50;99.90;;;;;;5002733;28;20503;-75
2023/12/15 00:26:35;;;;;;;2.42;1.30;;;7.50;1.00;;;;;;5002166;28;20212;-76
2023/12/15 00:29:03;;;;;;;1.98;1.63;;;7.50;99.90;;;;;;5003434;28;20050;-76
2023/12/15 00:31:30;;;;;;;2.70;1.30;;;7.50;99.90;;;;;;5005496;28;20056;-76
2023/12/15 00:33:57;;;;;;;1.50;1.20;;;7.50;45.60;;;;;;5005575;28;20054;-76
2023/12/15 00:36:24;;;;;;;1.92;1.40;;;7.50;34.00;;;;;;5004229;28;20061;-76
2023/12/15 00:38:51;;;;;;;2.22;1.60;;;7.50;45.40;;;;;;4993493;28;20691;-76
2023/12/15 00:41:18;;;;;;;1.80;1.20;;;7.50;99.90;;;;;;5004199;28;20096;-75
2023/12/15 00:43:45;;;;;;;1.00;0.90;;;7.50;99.90;;;;;;5008027;28;20047;-76
2023/12/15 00:46:11;;;;;;;1.67;0.98;;;7.60;99.90;;;;;;5024066;28;20557;-76
2023/12/15 00:48:38;;;;;;;1.52;1.13;;;7.60;1.00;;;;;;5009487;28;20049;-76
2023/12/15 00:51:06;;;;;;;1.60;1.00;;;7.70;99.90;;;;;;5024980;28;20057;-76
2023/12/15 00:53:32;;;;;;;1.40;0.95;;;7.70;99.90;;;;;;5024840;28;20049;-76
2023/12/15 00:56:00;;;;;;;1.65;1.10;;;7.70;99.90;;;;;;5025021;28;20049;-76
2023/12/15 00:58:27;;;;;;;1.67;1.35;;;7.70;99.90;;;;;;5023437;28;20495;-76
2023/12/15 01:00:54;;;;;;;2.05;1.05;;;7.70;99.90;;;;;;5024768;28;20491;-76
2023/12/15 01:03:20;;;;;;;1.58;0.82;;;7.70;99.90;;;;;;5012303;28;20054;-76
2023/12/15 01:05:50;;;;;;;1.10;0.98;;;7.80;99.90;;;;;;5002078;28;20449;-76
2023/12/15 01:08:17;;;;;;;1.27;1.17;;;7.80;99.90;;;;;;4988259;28;20081;-77
2023/12/15 01:10:44;;;;;;;2.45;1.50;;;7.80;92.30;;;;;;5005021;28;20046;-76
2023/12/15 01:13:12;;;;;;;1.98;1.20;;;7.80;78.20;;;;;;5005172;28;20104;-76
2023/12/15 01:15:39;;;;;;;1.35;1.08;;;7.80;99.90;;;;;;5000531;28;20213;-76
2023/12/15 01:18:06;;;;;;;1.73;1.20;;;7.90;99.90;;;;;;5003852;28;20111;-75
2023/12/15 01:20:33;;;;;;;2.13;1.17;;;7.90;99.90;;;;;;4989028;28;20050;-76
2023/12/15 01:23:00;;;;;;;3.28;1.70;;;7.90;99.90;;;;;;4990480;28;20056;-76
2023/12/15 01:25:27;;;;;;;2.42;1.55;;;8.00;99.90;;;;;;4992968;28;20065;-77
2023/12/15 01:27:54;;;;;;;1.98;1.13;;;8.00;1.00;;;;;;4988214;28;20749;-76
2023/12/15 01:30:21;;;;;;;3.15;1.55;;;8.00;99.90;;;;;;5005473;28;20060;-76
2023/12/15 01:32:48;;;;;;;2.03;1.00;;;8.00;99.90;;;;;;5006572;28;20049;-76
2023/12/15 01:35:15;;;;;;;1.25;0.73;;;8.00;99.90;;;;;;5025051;28;20658;-76
2023/12/15 01:37:42;;;;;;;1.80;1.40;;;8.00;99.90;;;;;;5025855;28;20052;-77
2023/12/15 01:40:09;;;;;;;0.88;0.68;;;8.00;1.00;;;;;;5025409;28;20122;-76
2023/12/15 01:42:36;;;;;;;1.55;1.10;;;8.10;99.90;;;;;;5021196;28;20053;-76
2023/12/15 01:45:03;;;;;;;1.40;0.90;;;8.10;99.90;;;;;;5003347;28;20641;-76
2023/12/15 01:47:30;;;;;;;1.38;0.82;;;8.10;99.90;;;;;;5003654;28;20081;-76
2023/12/15 01:49:57;;;;;;;1.00;0.73;;;8.10;12.60;;;;;;5020628;28;20059;-77
2023/12/15 01:52:24;;;;;;;1.77;1.08;;;8.20;99.90;;;;;;5023444;28;20053;-76
2023/12/15 01:54:51;;;;;;;4.45;1.92;;;8.10;85.70;;;;;;5003379;28;20050;-76
2023/12/15 01:57:18;;;;;;;3.33;1.83;;;8.10;33.60;;;;;;4987304;28;20480;-77
2023/12/15 01:59:49;;;;;;;4.93;1.77;;;8.00;19.60;;;;;;5003412;28;20046;-76
2023/12/15 02:02:16;;;;;;;2.65;1.60;;;8.00;63.50;;;;;;5003353;28;20057;-76
2023/12/15 02:04:43;;;;;;;2.55;1.42;;;8.00;99.90;;;;;;5002966;28;20053;-77
2023/12/15 02:07:10;;;;;;;2.20;1.20;;;8.00;99.90;;;;;;5003660;28;20115;-75
2023/12/15 02:09:40;;;;;;;2.05;1.15;;;8.00;99.90;;;;;;5003383;28;20049;-75
2023/12/15 02:12:07;;;;;;;2.10;1.10;;;8.00;1.00;;;;;;5003782;28;20054;-75
2023/12/15 02:14:34;;;;;;;2.20;1.23;;;8.00;99.90;;;;;;5000711;28;20479;-76
2023/12/15 02:17:00;;;;;;;1.35;0.95;;;8.10;1.00;;;;;;4987206;28;20053;-76
2023/12/15 02:19:27;;;;;;;1.35;0.90;;;8.10;99.90;;;;;;4987691;28;20057;-75
2023/12/15 02:21:54;;;;;;;1.60;0.90;;;8.00;1.00;;;;;;5003211;28;20131;-75
2023/12/15 02:24:21;;;;;;;1.98;1.05;;;8.10;99.90;;;;;;5018411;28;20099;-76
2023/12/15 02:26:48;;;;;;;1.25;0.90;;;8.10;99.90;;;;;;5022912;28;20130;-76
2023/12/15 02:29:15;;;;;;;2.45;1.05;;;8.10;99.90;;;;;;5023235;28;20045;-76
2023/12/15 02:31:42;;;;;;;1.75;0.95;;;8.10;99.90;;;;;;5024343;28;20483;-75
2023/12/15 02:34:08;;;;;;;1.58;0.98;;;8.00;3.60;;;;;;5022175;28;20093;-76
2023/12/15 02:36:35;;;;;;;0.93;0.65;;;8.00;1.00;;;;;;5024594;28;20148;-76
2023/12/15 02:39:05;;;;;;;1.58;0.73;;;8.10;1.00;;;;;;5025121;28;20121;-76
2023/12/15 02:41:32;;;;;;;0.90;0.80;;;8.10;1.00;;;;;;5027654;28;20053;-75
2023/12/15 02:43:59;;;;;;;1.30;1.20;;;8.10;1.00;;;;;;4997927;28;20045;-75
2023/12/15 02:46:26;;;;;;;1.23;0.80;;;8.10;1.00;;;;;;5032534;28;20142;-76
2023/12/15 02:48:52;;;;;;;1.23;0.77;;;8.10;99.90;;;;;;5044906;28;20595;-75
2023/12/15 02:51:29;;;;;;;1.60;1.00;;;8.00;99.90;;;;;;5012223;28;20053;-76
2023/12/15 02:54:00;;;;;;;0.82;0.50;;;8.00;99.90;;;;;;5023896;28;20045;-75
2023/12/15 02:56:27;;;;;;;1.67;0.80;;;8.00;99.90;;;;;;5006149;28;20622;-75
2023/12/15 02:58:54;;;;;;;0.60;0.52;;;7.90;99.90;;;;;;4989069;28;20046;-77
2023/12/15 03:01:21;;;;;;;1.42;0.80;;;7.90;99.90;;;;;;5004176;28;20137;-77
2023/12/15 03:03:48;;;;;;;1.15;0.73;;;7.90;99.90;;;;;;4994413;28;20080;-78
2023/12/15 03:06:15;;;;;;;1.05;0.85;;;7.90;99.90;;;;;;5006061;28;20072;-77
2023/12/15 03:08:42;;;;;;;0.88;0.60;;;7.90;99.90;;;;;;5005248;28;20137;-77
2023/12/15 03:11:09;;;;;;;1.85;0.90;;;7.80;99.90;;;;;;5004925;28;20049;-78
2023/12/15 03:13:38;;;;;;;0.98;0.65;;;7.80;99.90;;;;;;4979604;28;20049;-77
2023/12/15 03:16:09;;;;;;;2.13;0.70;;;7.80;1.00;;;;;;5007937;28;20045;-77
2023/12/15 03:18:37;;;;;;;1.52;0.65;;;7.80;1.00;;;;;;5026243;28;20053;-77
2023/12/15 03:21:04;;;;;;;0.93;0.60;;;7.70;1.00;;;;;;5025072;28;20486;-78
2023/12/15 03:23:30;;;;;;;2.72;0.93;;;7.70;1.00;;;;;;5026272;28;20076;-77
2023/12/15 03:25:57;;;;;;;1.58;0.70;;;7.70;1.00;;;;;;5026179;28;20136;-77
2023/12/15 03:28:24;;;;;;;1.35;0.80;;;7.70;99.90;;;;;;5004371;28;20090;-77
2023/12/15 03:30:51;;;;;;;1.02;0.75;;;7.70;99.90;;;;;;5006146;28;20046;-77
2023/12/15 03:33:18;;;;;;;1.20;0.80;;;7.70;99.90;;;;;;5007734;28;20053;-77
2023/12/15 03:35:45;;;;;;;1.08;0.57;;;7.70;99.90;;;;;;5024405;28;20053;-77
2023/12/15 03:38:12;;;;;;;1.13;0.80;;;7.70;99.90;;;;;;5008176;28;20049;-77
2023/12/15 03:40:39;;;;;;;1.83;0.75;;;7.70;84.90;;;;;;5008273;28;20414;-77
2023/12/15 03:43:06;;;;;;;1.42;0.60;;;7.70;79.70;;;;;;5025112;28;20054;-77
2023/12/15 03:45:33;;;;;;;3.50;1.00;;;7.70;34.10;;;;;;5025536;28;20057;-75
2023/12/15 03:48:00;;;;;;;2.42;0.80;;;7.70;1.00;;;;;;5009721;28;20107;-75
2023/12/15 03:50:27;;;;;;;1.30;0.70;;;7.60;1.00;;;;;;5028853;28;20111;-76
2023/12/15 03:52:54;;;;;;;2.10;0.70;;;7.60;1.00;;;;;;5012166;28;20045;-76
2023/12/15 03:55:21;;;;;;;1.15;0.70;;;7.60;1.00;;;;;;5028024;28;20042;-75
2023/12/15 03:57:48;;;;;;;1.30;0.70;;;7.50;20.90;;;;;;5027363;28;20060;-76
2023/12/15 04:00:16;;;;;;;1.58;0.68;;;7.50;99.90;;;;;;5027351;28;20056;-75
2023/12/15 04:02:43;;;;;;;0.90;0.65;;;7.40;99.90;;;;;;5010986;28;20608;-75
2023/12/15 04:05:10;;;;;;;2.05;1.08;;;7.40;99.90;;;;;;5011273;28;20529;-76
2023/12/15 04:07:38;;;;;;;2.38;0.90;;;7.40;1.00;;;;;;5011835;28;20053;-75
2023/12/15 04:10:05;;;;;;;1.02;0.50;;;7.30;1.00;;;;;;5028038;28;20048;-76
2023/12/15 04:12:32;;;;;;;1.73;1.10;;;7.30;99.90;;;;;;5028625;28;20145;-75
2023/12/15 04:14:59;;;;;;;1.15;0.65;;;7.30;99.90;;;;;;5026991;28;20457;-76
2023/12/15 04:17:26;;;;;;;1.48;0.73;;;7.30;1.00;;;;;;5027069;28;20084;-75
2023/12/15 04:19:53;;;;;;;1.58;0.80;;;7.30;1.00;;;;;;5027507;28;20049;-76
2023/12/15 04:22:22;;;;;;;0.88;0.70;;;7.30;22.60;;;;;;5027787;28;20057;-76
2023/12/15 04:24:49;;;;;;;1.38;0.85;;;7.30;99.90;;;;;;5027077;28;20533;-76
2023/12/15 04:27:16;;;;;;;0.55;0.50;;;7.20;62.40;;;;;;5010950;28;20188;-76
2023/12/15 04:29:43;;;;;;;1.38;0.73;;;7.30;53.80;;;;;;5027247;28;20056;-77
2023/12/15 04:32:12;;;;;;;1.45;0.73;;;7.30;1.00;;;;;;5027327;28;20376;-76
2023/12/15 04:34:39;;;;;;;0.98;0.50;;;7.20;99.90;;;;;;5013291;28;20129;-76
2023/12/15 04:37:06;;;;;;;1.10;0.57;;;7.30;99.90;;;;;;4991682;28;20049;-76
2023/12/15 04:39:33;;;;;;;1.17;0.70;;;7.30;99.90;;;;;;5008293;28;20053;-76
2023/12/15 04:42:00;;;;;;;1.50;0.80;;;7.30;99.90;;;;;;5007986;28;20045;-76
2023/12/15 04:44:27;;;;;;;1.27;0.55;;;7.20;68.70;;;;;;5008773;28;20455;-75
2023/12/15 04:46:55;;;;;;;1.77;0.85;;;7.20;99.90;;;;;;5006820;28;20046;-76
2023/12/15 04:49:22;;;;;;;1.48;0.63;;;7.20;99.90;;;;;;5008100;28;20054;-76
2023/12/15 04:51:49;;;;;;;1.08;0.65;;;7.20;99.90;;;;;;5007131;28;20046;-76
2023/12/15 04:54:16;;;;;;;0.70;0.40;;;7.20;1.00;;;;;;5007736;28;20061;-76
2023/12/15 04:56:44;;;;;;;1.05;0.65;;;7.10;1.00;;;;;;5008504;28;20066;-76
2023/12/15 04:59:12;;;;;;;2.17;0.90;;;7.10;1.00;;;;;;5007070;28;20050;-76
2023/12/15 05:01:39;;;;;;;1.27;0.70;;;7.10;1.00;;;;;;4990039;28;20050;-77
2023/12/15 05:04:06;;;;;;;1.02;0.75;;;7.10;99.90;;;;;;4996146;28;20092;-77
2023/12/15 05:06:34;;;;;;;0.85;0.50;;;7.10;99.90;;;;;;4991181;28;20050;-76
2023/12/15 05:09:04;;;;;;;1.00;0.50;;;7.10;99.90;;;;;;5017714;28;20128;-76
2023/12/15 05:11:35;;;;;;;0.75;0.55;;;7.10;1.00;;;;;;5026730;28;20053;-76
2023/12/15 05:14:02;;;;;;;1.05;0.60;;;7.10;1.00;;;;;;5018988;28;20062;-75
2023/12/15 05:16:29;;;;;;;1.48;0.70;;;7.10;99.90;;;;;;5005999;28;20060;-76
2023/12/15 05:18:56;;;;;;;1.08;0.60;;;7.10;99.90;;;;;;5006724;28;20049;-76
2023/12/15 05:21:24;;;;;;;1.73;0.95;;;7.10;99.90;;;;;;5006562;28;20050;-75
2023/12/15 05:23:51;;;;;;;0.75;0.57;;;7.10;99.90;;;;;;4996472;28;20049;-75
2023/12/15 05:26:18;;;;;;;0.90;0.70;;;7.10;99.90;;;;;;5042400;28;20127;-76
2023/12/15 05:28:46;;;;;;;1.00;0.60;;;7.10;99.90;;;;;;5026345;28;20057;-75
2023/12/15 05:31:13;;;;;;;0.82;0.65;;;7.10;99.90;;;;;;5025184;28;20045;-75
2023/12/15 05:33:40;;;;;;;0.90;0.70;;;7.10;19.00;;;;;;5023112;28;20058;-75
2023/12/15 05:36:07;;;;;;;1.05;0.50;;;7.10;21.10;;;;;;5006153;28;20697;-76
2023/12/15 05:38:34;;;;;;;1.02;0.43;;;7.10;99.90;;;;;;5006479;28;20108;-76
2023/12/15 05:41:02;;;;;;;0.77;0.52;;;7.10;99.90;;;;;;5005995;28;20049;-75
2023/12/15 05:43:29;;;;;;;1.30;0.60;;;7.10;99.90;;;;;;5005476;28;20046;-76
2023/12/15 05:45:56;;;;;;;1.42;0.82;;;7.10;46.20;;;;;;5007494;28;20050;-75
2023/12/15 05:48:22;;;;;;;0.70;0.50;;;7.10;1.00;;;;;;5005407;28;20081;-76
2023/12/15 05:50:50;;;;;;;0.57;0.52;;;7.00;99.90;;;;;;5020458;28;20046;-75
2023/12/15 05:53:17;;;;;;;1.35;0.68;;;6.90;99.90;;;;;;5004018;28;20053;-76
2023/12/15 05:55:44;;;;;;;2.40;0.63;;;6.90;99.90;;;;;;5004073;28;20048;-76
2023/12/15 05:58:12;;;;;;;1.70;1.10;;;6.90;99.90;;;;;;5005419;28;20053;-76
2023/12/15 06:00:39;;;;;;;1.40;0.63;;;6.80;1.00;;;;;;4987564;28;20053;-76
2023/12/15 06:03:07;;;;;;;1.58;0.73;;;6.80;1.00;;;;;;5005577;28;20151;-77
2023/12/15 06:05:34;;;;;;;1.23;0.52;;;6.80;99.90;;;;;;5003968;28;20041;-76
2023/12/15 06:08:02;;;;;;;0.80;0.60;;;6.80;99.90;;;;;;5020439;28;20179;-76
2023/12/15 06:10:29;;;;;;;0.55;0.40;;;6.80;1.00;;;;;;5022959;28;20095;-76
2023/12/15 06:12:56;;;;;;;0.82;0.60;;;6.80;92.00;;;;;;5018204;28;20077;-76
2023/12/15 06:15:23;;;;;;;0.85;0.55;;;6.80;99.90;;;;;;5015840;28;20050;-76
2023/12/15 06:17:50;;;;;;;2.17;0.55;;;6.80;99.90;;;;;;5015563;28;20073;-76
2023/12/15 06:20:17;;;;;;;0.75;0.50;;;6.80;93.50;;;;;;4984884;28;20450;-75
2023/12/15 06:22:44;;;;;;;0.50;0.50;;;6.70;99.90;;;;;;5016979;28;20148;-76
2023/12/15 06:25:11;;;;;;;1.08;0.68;;;6.70;99.90;;;;;;4999770;28;20056;-76
2023/12/15 06:27:38;;;;;;;1.60;0.80;;;6.70;99.90;;;;;;5011909;28;20100;-76
2023/12/15 06:30:06;;;;;;;1.13;0.68;;;6.70;99.90;;;;;;5007048;28;20566;-76
2023/12/15 06:32:32;;;;;;;1.33;0.77;;;6.70;99.90;;;;;;5011756;28;20048;-76
2023/12/15 06:35:00;;;;;;;2.10;1.00;;;6.70;1.00;;;;;;5016633;28;20184;-76
2023/12/15 06:37:27;;;;;;;1.00;0.60;;;6.60;1.00;;;;;;5018864;28;20045;-76
2023/12/15 06:39:55;;;;;;;1.23;0.60;;;6.60;1.50;;;;;;5015695;28;20053;-76
2023/12/15 06:42:22;;;;;;;1.13;0.70;;;6.50;1.00;;;;;;5006059;28;20420;-76
2023/12/15 06:44:49;;;;;;;0.90;0.60;;;6.50;1.00;;;;;;5015849;28;20931;-76
2023/12/15 06:47:16;;;;;;;0.95;0.63;;;6.50;1.00;;;;;;5023700;28;20057;-76
2023/12/15 06:49:43;;;;;;;1.20;0.57;;;6.40;1.00;;;;;;5018234;28;20338;-76
2023/12/15 06:52:09;;;;;;;1.15;0.70;;;6.40;1.00;;;;;;5010788;28;20046;-76
2023/12/15 06:54:39;;;;;;;1.05;0.63;;;6.30;99.90;;;;;;5012507;28;20042;-76
2023/12/15 06:57:06;;;;;;;0.60;0.60;;;6.30;99.90;;;;;;5012877;28;20460;-76
2023/12/15 06:59:33;;;;;;;1.35;0.82;;;6.30;99.90;;;;;;4996020;28;20053;-76
2023/12/15 07:02:00;;;;;;;0.75;0.55;;;6.20;99.90;;;;;;5015162;28;20457;-75
2023/12/15 07:04:27;;;;;;;0.88;0.63;;;6.20;99.90;;;;;;4990922;28;20058;-75
2023/12/15 07:06:54;;;;;;;1.67;0.80;;;6.10;99.90;;;;;;5010721;28;20049;-76
2023/12/15 07:09:22;;;;;;;1.58;1.48;;;6.00;99.90;;;;;;5014922;28;20050;-76
2023/12/15 07:11:48;;;;;;;1.27;0.60;;;5.90;92.20;;;;;;5012058;28;20600;-76
2023/12/15 07:14:15;;;;;;;0.70;0.50;;;5.80;99.90;;;;;;5002330;28;20084;-76
2023/12/15 07:16:42;;;;;;;0.90;0.55;;;5.80;99.90;;;;;;5007740;28;20050;-76
2023/12/15 07:19:09;;;;;;;0.95;0.50;;;5.70;99.90;;;;;;4992048;28;20565;-76
2023/12/15 07:21:36;;;;;;;0.32;0.30;;;5.70;1.00;;;;;;5009094;28;20442;-76
2023/12/15 07:24:03;;;;;;;0.47;0.40;;;5.60;1.00;;;;;;5020752;28;20052;-76
2023/12/15 07:26:30;;;;;;;0.70;0.40;;;5.50;1.00;;;;;;4997610;28;20467;-76
2023/12/15 07:28:57;;;;;;;0.75;0.50;;;5.50;1.00;;;;;;4997205;28;20129;-76
2023/12/15 07:31:23;;;;;;;0.82;0.50;;;5.40;1.00;;;;;;5017616;28;20041;-76
2023/12/15 07:33:50;;;;;;;0.45;0.32;;;5.40;81.30;;;;;;5022906;28;20054;-76
2023/12/15 07:36:17;;;;;;;1.05;0.60;;;5.30;99.90;;;;;;5002215;28;20061;-75
2023/12/15 07:38:46;;;;;;;0.60;0.50;;;5.20;99.90;;;;;;4977247;28;20053;-75
2023/12/15 07:41:13;;;;;;;1.08;0.52;;;5.10;99.90;;;;;;5015067;28;20080;-75
2023/12/15 07:43:40;;;;;;;2.30;0.75;;;5.10;1.00;;;;;;5015899;28;20065;-75
2023/12/15 07:46:17;;;;;;;0.55;0.55;;;5.00;99.90;;;;;;5003188;28;20061;-75
2023/12/15 07:48:44;;;;;;;1.08;0.60;;;5.00;1.00;;;;;;4999103;28;20664;-75
2023/12/15 07:51:21;;;;;;;0.98;0.60;;;4.90;99.90;;;;;;5016854;28;20038;-75
2023/12/15 07:53:48;;;;;;;1.33;0.55;;;4.90;99.90;;;;;;5010460;28;20213;-76
2023/12/15 07:56:21;;;;;;;1.13;0.68;;;4.80;99.90;;;;;;5015337;28;20162;-75
2023/12/15 07:58:49;;;;;;;1.23;0.70;;;4.80;99.90;;;;;;4998275;28;20095;-75
2023/12/15 08:01:19;;;;;;;1.08;0.60;;;4.80;1.00;;;;;;4987760;28;20085;-76
2023/12/15 08:03:47;;;;;;;2.67;0.90;;;4.80;1.00;;;;;;5019239;28;20057;-76
2023/12/15 08:06:14;;;;;;;1.15;0.80;;;4.80;1.00;;;;;;5008066;28;20538;-77
2023/12/15 08:08:41;;;;;;;0.57;0.40;;;4.90;44.40;;;;;;4985026;28;20132;-76
2023/12/15 08:11:12;;;;;;;0.93;0.60;;;5.00;99.90;;;;;;4993785;28;20041;-76
2023/12/15 08:13:40;;;;;;;2.08;0.70;;;5.10;99.90;;;;;;5019258;28;20057;-76
2023/12/15 08:16:09;;;;;;;0.60;0.50;;;5.20;99.90;;;;;;5006517;28;20046;-76
2023/12/15 08:18:41;;;;;;;1.50;0.50;;;5.20;99.90;;;;;;5009678;28;20053;-76
2023/12/15 08:21:10;;;;;;;1.00;0.50;;;5.30;99.90;;;;;;5005440;28;20054;-76
2023/12/15 08:23:37;;;;;;;0.60;0.43;;;5.40;99.90;;;;;;4992729;28;20463;-76
2023/12/15 08:26:04;;;;;;;0.60;0.50;;;5.50;99.90;;;;;;5003909;28;20052;-76
2023/12/15 08:28:31;;;;;;;0.73;0.55;;;5.50;99.90;;;;;;5018675;28;20049;-76
2023/12/15 08:30:58;;;;;;;0.82;0.70;;;5.60;99.90;;;;;;4992618;28;20449;-75
2023/12/15 08:33:27;;;;;;;0.88;0.50;;;5.60;99.90;;;;;;5009299;28;20221;-75
2023/12/15 08:35:54;;;;;;;1.08;0.73;;;5.80;99.90;;;;;;5009445;28;20499;-76
2023/12/15 08:38:21;;;;;;;1.15;0.65;;;5.80;99.90;;;;;;4999651;28;20129;-76
2023/12/15 08:40:48;;;;;;;1.27;0.68;;;5.90;99.90;;;;;;5009956;28;20050;-76
2023/12/15 08:43:15;;;;;;;0.90;0.60;;;6.00;99.90;;;;;;5008584;28;20860;-76
2023/12/15 08:45:41;;;;;;;0.88;0.55;;;6.10;99.90;;;;;;5005427;28;20309;-76
2023/12/15 08:48:08;;;;;;;0.93;0.60;;;6.10;90.40;;;;;;4996885;28;20697;-76
2023/12/15 08:50:36;;;;;;;1.50;0.50;;;6.20;1.00;;;;;;4986519;28;20052;-76
2023/12/15 08:53:02;;;;;;;1.35;0.50;;;6.30;99.90;;;;;;5015861;28;20061;-76
2023/12/15 08:55:29;;;;;;;1.77;0.57;;;6.40;99.90;;;;;;5014985;28;20081;-77
2023/12/15 08:57:56;;;;;;;0.80;0.60;;;6.50;81.80;;;;;;5015906;28;20479;-77
2023/12/15 09:00:23;;;;;;;0.95;0.60;;;6.50;44.30;;;;;;5017574;28;20049;-78
2023/12/15 09:02:52;;;;;;;0.88;0.52;;;6.60;99.90;;;;;;5011429;28;20060;-76
2023/12/15 09:05:23;;;;;;;0.93;0.55;;;6.70;99.90;;;;;;5018613;28;20049;-76
2023/12/15 09:08:10;;;;;;;1.15;0.60;;;6.80;99.90;;;;;;4999007;28;20057;-76
2023/12/15 09:10:43;;;;;;;1.20;0.52;;;6.90;2.80;;;;;;5007236;28;20544;-76
2023/12/15 09:25:07;;;;;;;1.60;1.15;;;7.10;99.90;;;;;;5052066;28;20922;-77
2023/12/15 09:27:33;;;;;;;1.92;1.00;;;7.60;99.90;;;;;;5016049;28;20057;-76
2023/12/15 09:30:01;;;;;;;2.03;1.00;;;7.70;99.90;;;;;;5030353;28;20130;-76
2023/12/15 09:32:27;;;;;;;1.95;1.00;;;7.80;99.90;;;;;;5035471;28;20149;-76
2023/12/15 09:34:54;;;;;;;2.00;0.70;;;7.80;99.90;;;;;;5019797;28;20136;-76
2023/12/15 09:37:22;;;;;;;1.95;0.80;;;7.90;99.90;;;;;;5019540;28;20530;-76
2023/12/15 09:39:49;;;;;;;1.55;0.95;;;7.90;99.90;;;;;;5053691;28;20049;-76
2023/12/15 09:42:16;;;;;;;1.20;0.43;;;8.00;99.90;;;;;;5019527;28;20052;-77
2023/12/15 09:44:43;;;;;;;0.88;0.60;;;8.00;99.90;;;;;;5034952;28;20603;-77
2023/12/15 09:47:27;;;;;;;1.17;0.80;;;8.10;99.90;;;;;;5037726;28;20128;-77
2023/12/15 09:49:54;;;;;;;1.48;0.70;;;8.10;99.90;;;;;;5020273;28;20082;-76
2023/12/15 09:52:21;;;;;;;1.58;0.50;;;8.10;99.90;;;;;;5020189;28;20080;-77
2023/12/15 09:54:49;;;;;;;1.08;0.60;;;8.20;99.90;;;;;;5035937;28;20064;-77
2023/12/15 09:57:16;;;;;;;1.17;0.50;;;8.20;99.90;;;;;;5029864;28;20372;-77
2023/12/15 09:59:43;;;;;;;0.98;0.50;;;8.20;99.90;;;;;;5055062;28;20053;-77
2023/12/15 10:02:09;;;;;;;2.55;0.63;;;8.30;99.90;;;;;;5016508;28;20055;-74
2023/12/15 10:04:36;;;;;;;0.90;0.60;;;8.30;99.90;;;;;;5034231;28;20153;-74
2023/12/15 10:07:03;;;;;;;1.00;0.50;;;8.30;99.90;;;;;;5031489;28;20056;-74
2023/12/15 10:09:30;;;;;;;0.90;0.50;;;8.40;99.90;;;;;;5029164;28;20061;-75
2023/12/15 10:11:57;;;;;;;3.95;0.70;;;8.40;99.90;;;;;;5033710;28;20064;-74
2023/12/15 10:14:23;;;;;;;2.55;0.80;;;8.50;99.90;;;;;;5035754;28;20056;-74
2023/12/15 10:16:50;;;;;;;1.75;0.60;;;8.50;99.90;;;;;;5016550;28;20559;-74
2023/12/15 10:19:18;;;;;;;2.92;0.80;;;8.50;99.90;;;;;;5019660;28;20485;-74
2023/12/15 10:21:45;;;;;;;2.00;0.80;;;8.50;99.90;;;;;;4999531;28;20049;-75
2023/12/15 10:24:23;;;;;;;2.33;0.60;;;8.50;99.90;;;;;;5031145;28;20057;-75
2023/12/15 10:26:50;;;;;;;3.20;1.20;;;8.60;99.90;;;;;;5021261;28;20057;-74
2023/12/15 10:29:24;;;;;;;0.88;0.52;;;8.60;99.90;;;;;;5022431;28;20052;-74
2023/12/15 10:31:51;;;;;;;1.65;0.77;;;8.70;99.90;;;;;;5021631;28;20420;-74
2023/12/15 10:34:22;;;;;;;1.45;0.70;;;8.70;99.90;;;;;;5037747;28;20189;-74
2023/12/15 10:36:49;;;;;;;1.42;0.98;;;8.80;99.90;;;;;;5004226;28;20164;-74
2023/12/15 10:39:17;;;;;;;2.58;0.75;;;8.80;99.90;;;;;;4988965;28;20053;-74
2023/12/15 10:41:44;;;;;;;1.27;0.63;;;8.90;99.90;;;;;;5023081;28;20051;-74
2023/12/15 10:44:14;;;;;;;0.95;0.50;;;8.90;99.90;;;;;;4989523;28;20764;-73
2023/12/15 10:46:42;;;;;;;1.60;0.75;;;9.00;99.90;;;;;;5004932;28;20059;-74
2023/12/15 10:49:09;;;;;;;1.27;0.55;;;9.00;99.90;;;;;;5001067;28;20081;-73
2023/12/15 10:51:40;;;;;;;1.05;0.60;;;9.00;99.90;;;;;;4992184;28;20410;-74
2023/12/15 10:54:08;;;;;;;1.30;0.70;;;9.10;99.90;;;;;;4991200;28;20283;-73
2023/12/15 10:56:39;;;;;;;2.25;0.80;;;9.10;99.90;;;;;;5023820;28;20553;-73
2023/12/15 10:59:06;;;;;;;1.45;0.70;;;9.20;99.90;;;;;;5025134;28;20083;-73
2023/12/15 11:01:34;;;;;;;1.08;0.60;;;9.20;99.90;;;;;;5006693;28;20072;-74
2023/12/15 11:04:01;;;;;;;2.03;0.95;;;9.30;99.90;;;;;;5042246;28;20056;-73
2023/12/15 11:06:32;;;;;;;1.23;0.85;;;9.30;99.90;;;;;;5024476;28;20064;-74
2023/12/15 11:09:05;;;;;;;1.40;0.52;;;9.30;99.90;;;;;;5024582;28;20406;-73
2023/12/15 11:11:32;;;;;;;2.40;0.90;;;9.40;99.90;;;;;;5003440;28;20088;-73
2023/12/15 11:14:01;;;;;;;3.10;1.63;;;9.40;99.90;;;;;;5004567;28;20049;-75
2023/12/15 11:16:29;;;;;;;0.98;0.60;;;9.50;99.90;;;;;;5006674;28;20052;-74
2023/12/15 11:18:59;;;;;;;1.30;0.68;;;9.50;99.90;;;;;;5023560;28;20052;-74
2023/12/15 11:21:27;;;;;;;2.08;0.73;;;9.60;99.90;;;;;;4991741;28;20061;-74
2023/12/15 11:24:04;;;;;;;1.25;0.60;;;9.60;99.90;;;;;;5006542;28;20044;-74
2023/12/15 11:26:32;;;;;;;1.05;0.63;;;9.70;99.90;;;;;;5022964;28;20132;-74
2023/12/15 11:29:07;;;;;;;0.40;0.38;;;9.70;99.90;;;;;;5023965;28;20060;-74
2023/12/15 11:31:34;;;;;;;0.70;0.45;;;9.80;99.90;;;;;;5006669;28;20053;-74
2023/12/15 11:34:04;;;;;;;0.73;0.52;;;9.80;99.90;;;;;;4990760;28;20521;-74
2023/12/15 11:36:37;;;;;;;1.23;0.70;;;9.80;99.90;;;;;;5022365;28;20048;-74
2023/12/15 11:39:04;;;;;;;1.38;0.70;;;9.80;99.90;;;;;;5008621;28;20056;-74
2023/12/15 11:41:31;;;;;;;2.00;0.57;;;9.80;99.90;;;;;;5041070;28;20666;-74
2023/12/15 11:44:00;;;;;;;0.70;0.57;;;9.80;99.90;;;;;;5023470;28;20045;-74
2023/12/15 11:46:27;;;;;;;1.48;0.80;;;9.80;99.90;;;;;;5039734;28;20049;-74
2023/12/15 11:48:54;;;;;;;1.52;0.60;;;9.80;99.90;;;;;;5023992;28;20048;-73
2023/12/15 11:51:25;;;;;;;0.63;0.40;;;9.90;99.90;;;;;;5023101;28;20049;-74
2023/12/15 11:53:52;;;;;;;1.23;0.50;;;9.90;99.90;;;;;;5003093;28;20080;-74
2023/12/15 11:56:19;;;;;;;1.42;0.60;;;9.80;99.90;;;;;;4985179;28;20049;-73
2023/12/15 11:58:46;;;;;;;1.60;0.70;;;9.80;99.90;;;;;;5021055;28;20491;-73
2023/12/15 12:01:15;;;;;;;1.10;0.60;;;9.80;99.90;;;;;;4984952;28;20056;-74
2023/12/15 12:03:43;;;;;;;1.13;0.80;;;9.90;99.90;;;;;;4992469;28;20102;-74
2023/12/15 12:06:10;;;;;;;0.93;0.73;;;9.90;99.90;;;;;;5006027;28;20064;-74
2023/12/15 12:08:37;;;;;;;1.67;0.70;;;9.90;99.90;;;;;;5006935;28;20056;-74
2023/12/15 12:11:04;;;;;;;1.02;0.55;;;9.90;99.90;;;;;;5005926;28;20140;-74
2023/12/15 12:13:36;;;;;;;1.20;0.70;;;10.00;99.90;;;;;;5023487;28;20048;-73
2023/12/15 12:16:03;;;;;;;2.15;1.00;;;10.00;99.90;;;;;;5020542;28;20049;-73
2023/12/15 12:18:30;;;;;;;1.65;0.85;;;10.00;99.90;;;;;;5022632;28;20128;-73
2023/12/15 12:21:02;;;;;;;1.30;0.55;;;9.90;99.90;;;;;;5005747;28;20053;-74
2023/12/15 12:23:30;;;;;;;2.28;0.90;;;9.90;99.90;;;;;;5022324;28;20053;-73
2023/12/15 12:26:09;;;;;;;1.70;0.93;;;9.90;99.90;;;;;;5008353;28;20113;-74
2023/12/15 12:28:40;;;;;;;1.40;0.88;;;9.80;99.90;;;;;;5017156;28;20053;-73
2023/12/15 12:31:07;;;;;;;1.83;0.90;;;9.80;99.90;;;;;;5015207;28;20103;-73
2023/12/15 12:33:34;;;;;;;2.15;0.80;;;9.80;99.90;;;;;;4986537;28;20148;-73
2023/12/15 12:36:01;;;;;;;1.65;0.77;;;9.80;99.90;;;;;;5003114;28;20045;-73
2023/12/15 12:38:28;;;;;;;1.55;0.77;;;9.90;99.90;;;;;;5021332;28;20057;-74
2023/12/15 12:40:55;;;;;;;1.38;0.73;;;9.90;99.90;;;;;;5021583;28;20113;-73
2023/12/15 12:43:22;;;;;;;1.52;0.75;;;9.90;99.90;;;;;;5021956;28;20198;-73
2023/12/15 12:45:49;;;;;;;1.83;0.77;;;10.00;99.90;;;;;;5039133;28;20048;-73
2023/12/15 12:48:16;;;;;;;1.85;0.90;;;10.00;99.90;;;;;;5020437;28;20053;-73
2023/12/15 12:50:43;;;;;;;2.50;1.20;;;10.00;99.90;;;;;;5022267;28;20536;-73
2023/12/15 12:53:11;;;;;;;1.25;0.80;;;10.00;99.90;;;;;;5005633;28;20044;-73
2023/12/15 12:55:38;;;;;;;1.70;0.70;;;10.00;99.90;;;;;;5021795;28;20190;-73
2023/12/15 12:58:05;;;;;;;0.98;0.77;;;10.10;99.90;;;;;;5039079;28;20044;-73
2023/12/15 13:00:31;;;;;;;1.63;0.63;;;10.10;99.90;;;;;;5018898;28;20056;-74
2023/12/15 13:02:58;;;;;;;1.50;0.70;;;10.20;99.90;;;;;;5012707;28;20044;-73
2023/12/15 13:05:25;;;;;;;2.20;0.80;;;10.20;1.00;;;;;;5004950;28;20807;-73
2023/12/15 13:07:52;;;;;;;2.08;0.63;;;10.20;1.00;;;;;;5039813;28;20048;-73
2023/12/15 13:10:19;;;;;;;1.13;0.60;;;10.30;1.00;;;;;;5039357;28;20236;-74
2023/12/15 13:12:54;;;;;;;0.85;0.50;;;10.30;1.00;;;;;;5020733;28;20095;-73